Time;durP1;ratioP1;P1;durP2;ratioP2;P2;SDS_P1;SDS_P2;PMS_P1;PMS_P2;Temp;Humidity;BMP_temperature;BMP_pressure;BME280_temperature;BME280_humidity;BME280_pressure;Samples;Min_cycle;Max_cycle;Signal;HPM_P1;HPM_P2
2024/02/28 00:02:27;;;;;;;17.50;13.10;;;;;;;;;;4899305;29;20308;-80
2024/02/28 00:04:55;;;;;;;17.90;12.40;;;;;;;;;;4899144;29;20237;-80
2024/02/28 00:07:22;;;;;;;13.30;9.67;;;;;;;;;;4899517;29;20595;-80
2024/02/28 00:09:49;;;;;;;13.87;9.33;;;;;;;;;;4898852;29;20301;-80
2024/02/28 00:12:16;;;;;;;12.63;9.20;;;;;;;;;;4899009;29;20239;-80
2024/02/28 00:14:43;;;;;;;16.10;8.70;;;;;;;;;;4898815;29;20205;-80
2024/02/28 00:17:11;;;;;;;11.97;8.20;;;;;;;;;;4899009;29;20293;-80
2024/02/28 00:19:39;;;;;;;12.00;9.73;;;;;;;;;;4898992;29;20288;-81
2024/02/28 00:22:06;;;;;;;10.80;9.33;;;;;;;;;;4898726;29;20207;-80
2024/02/28 00:24:33;;;;;;;12.97;9.53;;;;;;;;;;4898813;29;20316;-80
2024/02/28 00:27:01;;;;;;;16.20;13.07;;;;;;;;;;4898275;29;20237;-80
2024/02/28 00:29:28;;;;;;;15.23;13.20;;;;;;;;;;4898762;29;20300;-80
2024/02/28 00:31:55;;;;;;;17.80;13.87;;;;;;;;;;4898801;29;20936;-80
2024/02/28 00:34:22;;;;;;;16.53;12.90;;;;;;;;;;4898577;29;20584;-79
2024/02/28 00:36:51;;;;;;;19.50;13.77;;;;;;;;;;4898452;29;20663;-79
2024/02/28 00:39:18;;;;;;;49.00;26.40;;;;;;;;;;4898588;29;20677;-80
2024/02/28 00:41:45;;;;;;;40.33;21.63;;;;;;;;;;4898607;29;20203;-81
2024/02/28 00:44:12;;;;;;;23.47;14.50;;;;;;;;;;4897894;29;20232;-79
2024/02/28 00:46:41;;;;;;;16.37;11.17;;;;;;;;;;4898511;29;20201;-79
2024/02/28 00:49:08;;;;;;;15.60;10.53;;;;;;;;;;4897310;29;20205;-80
2024/02/28 00:51:36;;;;;;;16.13;10.30;;;;;;;;;;4898092;29;20273;-80
2024/02/28 00:54:04;;;;;;;12.00;9.67;;;;;;;;;;4898297;29;20212;-79
2024/02/28 00:56:32;;;;;;;13.03;9.70;;;;;;;;;;4898057;29;20299;-81
2024/02/28 00:58:59;;;;;;;14.97;10.83;;;;;;;;;;4897542;29;20296;-80
2024/02/28 01:01:26;;;;;;;20.33;10.70;;;;;;;;;;4898134;29;20201;-79
2024/02/28 01:03:53;;;;;;;15.27;10.90;;;;;;;;;;4897949;29;20663;-80
2024/02/28 01:06:20;;;;;;;14.37;10.40;;;;;;;;;;4897654;29;20201;-80
2024/02/28 01:08:48;;;;;;;14.33;10.23;;;;;;;;;;4897805;29;20261;-80
2024/02/28 01:11:17;;;;;;;14.33;10.90;;;;;;;;;;4897500;29;20296;-80
2024/02/28 01:13:44;;;;;;;17.37;11.87;;;;;;;;;;4897640;29;20292;-80
2024/02/28 01:16:11;;;;;;;17.97;12.40;;;;;;;;;;4898101;29;20223;-80
2024/02/28 01:18:38;;;;;;;19.83;12.70;;;;;;;;;;4897957;29;20207;-80
2024/02/28 01:21:05;;;;;;;19.00;13.97;;;;;;;;;;4897459;29;20198;-80
2024/02/28 01:23:33;;;;;;;18.70;13.47;;;;;;;;;;4897131;29;20694;-80
2024/02/28 01:26:03;;;;;;;16.63;13.80;;;;;;;;;;4897237;29;20210;-79
2024/02/28 01:28:31;;;;;;;18.43;13.60;;;;;;;;;;4897826;29;20201;-80
2024/02/28 01:31:00;;;;;;;20.27;13.37;;;;;;;;;;4897585;29;20291;-80
2024/02/28 01:33:27;;;;;;;18.07;12.93;;;;;;;;;;4897398;29;20236;-80
2024/02/28 01:35:55;;;;;;;18.53;13.03;;;;;;;;;;4897941;29;20229;-80
2024/02/28 01:38:22;;;;;;;18.47;13.37;;;;;;;;;;4897107;29;20213;-80
2024/02/28 01:40:49;;;;;;;18.03;12.70;;;;;;;;;;4896739;29;20652;-80
2024/02/28 01:43:16;;;;;;;19.27;12.17;;;;;;;;;;4897501;29;20198;-80
2024/02/28 01:45:46;;;;;;;15.60;12.63;;;;;;;;;;4897085;29;20232;-80
2024/02/28 01:48:13;;;;;;;16.87;12.60;;;;;;;;;;4896994;29;20284;-79
2024/02/28 01:50:40;;;;;;;17.10;12.80;;;;;;;;;;4897238;29;20201;-80
2024/02/28 01:53:08;;;;;;;16.53;12.87;;;;;;;;;;4897327;29;20299;-80
2024/02/28 01:55:35;;;;;;;17.10;13.93;;;;;;;;;;4896965;29;20302;-79
2024/02/28 01:58:05;;;;;;;14.53;10.93;;;;;;;;;;4897010;29;20200;-80
2024/02/28 02:00:33;;;;;;;13.70;10.70;;;;;;;;;;4896924;29;20201;-80
2024/02/28 02:03:02;;;;;;;12.93;11.10;;;;;;;;;;4897372;29;20198;-80
2024/02/28 02:05:30;;;;;;;13.20;10.87;;;;;;;;;;4896963;29;20228;-80
2024/02/28 02:07:58;;;;;;;13.47;10.70;;;;;;;;;;4897003;29;20304;-79
2024/02/28 02:10:26;;;;;;;12.93;10.93;;;;;;;;;;4896696;29;20209;-80
2024/02/28 02:12:53;;;;;;;14.73;11.07;;;;;;;;;;4896811;29;20208;-80
2024/02/28 02:15:20;;;;;;;14.30;11.00;;;;;;;;;;4896528;29;20235;-80
2024/02/28 02:17:47;;;;;;;14.87;11.00;;;;;;;;;;4896956;29;20201;-80
2024/02/28 02:20:17;;;;;;;14.60;10.77;;;;;;;;;;4896715;29;20683;-80
2024/02/28 02:22:46;;;;;;;17.00;11.60;;;;;;;;;;4896688;29;20202;-79
2024/02/28 02:25:14;;;;;;;14.40;11.40;;;;;;;;;;4896317;29;20243;-80
2024/02/28 02:27:41;;;;;;;14.47;11.27;;;;;;;;;;4910862;29;20735;-80
2024/02/28 02:30:09;;;;;;;17.40;11.93;;;;;;;;;;4915448;29;20344;-80
2024/02/28 02:32:36;;;;;;;15.80;10.97;;;;;;;;;;4898701;29;20200;-80
2024/02/28 02:35:03;;;;;;;13.17;9.47;;;;;;;;;;4915590;29;20303;-80
2024/02/28 02:37:30;;;;;;;15.53;9.87;;;;;;;;;;4915223;29;20211;-80
2024/02/28 02:39:59;;;;;;;12.60;9.07;;;;;;;;;;4898402;29;20205;-80
2024/02/28 02:42:26;;;;;;;15.50;9.40;;;;;;;;;;4915019;29;20227;-80
2024/02/28 02:44:54;;;;;;;14.80;9.50;;;;;;;;;;4914929;29;20228;-81
2024/02/28 02:47:21;;;;;;;12.67;10.10;;;;;;;;;;4915394;29;20207;-80
2024/02/28 02:49:48;;;;;;;11.37;9.70;;;;;;;;;;4915155;29;20211;-80
2024/02/28 02:52:15;;;;;;;12.20;9.63;;;;;;;;;;4915227;29;20279;-80
2024/02/28 02:54:42;;;;;;;12.73;9.07;;;;;;;;;;4915344;29;20295;-80
2024/02/28 02:57:11;;;;;;;12.17;9.63;;;;;;;;;;4914495;29;20654;-80
2024/02/28 02:59:38;;;;;;;13.80;9.57;;;;;;;;;;4915424;29;20211;-80
2024/02/28 03:02:06;;;;;;;11.93;8.97;;;;;;;;;;4915048;29;20228;-80
2024/02/28 03:04:33;;;;;;;11.33;9.10;;;;;;;;;;4915048;29;20315;-80
2024/02/28 03:07:02;;;;;;;9.43;8.37;;;;;;;;;;4915007;29;20231;-80
2024/02/28 03:09:29;;;;;;;14.80;10.13;;;;;;;;;;4914712;29;20685;-80
2024/02/28 03:11:56;;;;;;;15.47;9.23;;;;;;;;;;4896655;29;20244;-79
2024/02/28 03:14:27;;;;;;;14.27;9.97;;;;;;;;;;4894109;29;20307;-80
2024/02/28 03:16:54;;;;;;;12.27;9.93;;;;;;;;;;4900008;29;20207;-80
2024/02/28 03:19:21;;;;;;;13.53;9.07;;;;;;;;;;4899830;29;20644;-80
2024/02/28 03:21:49;;;;;;;11.27;8.40;;;;;;;;;;4899855;29;20205;-80
2024/02/28 03:24:17;;;;;;;11.47;7.87;;;;;;;;;;4899593;29;20205;-81
2024/02/28 03:26:44;;;;;;;9.93;8.50;;;;;;;;;;4899643;29;20244;-80
2024/02/28 03:29:11;;;;;;;10.90;7.90;;;;;;;;;;4899856;29;20217;-80
2024/02/28 03:31:40;;;;;;;12.80;8.40;;;;;;;;;;4899824;29;20272;-80
2024/02/28 03:34:07;;;;;;;12.43;8.77;;;;;;;;;;4899773;29;20212;-80
2024/02/28 03:36:34;;;;;;;12.13;7.70;;;;;;;;;;4899581;29;20265;-80
2024/02/28 03:39:06;;;;;;;11.40;8.27;;;;;;;;;;4899567;29;20296;-80
2024/02/28 03:41:33;;;;;;;9.23;7.73;;;;;;;;;;4899396;29;20733;-80
2024/02/28 03:44:00;;;;;;;9.60;7.60;;;;;;;;;;4899370;29;20205;-80
2024/02/28 03:46:28;;;;;;;11.43;8.00;;;;;;;;;;4899538;29;20621;-80
2024/02/28 03:48:56;;;;;;;10.23;7.27;;;;;;;;;;4899408;29;20293;-80
2024/02/28 03:51:23;;;;;;;11.93;7.87;;;;;;;;;;4898911;29;20627;-80
2024/02/28 03:53:50;;;;;;;9.77;7.53;;;;;;;;;;4899428;29;20304;-80
2024/02/28 03:56:23;;;;;;;9.87;7.70;;;;;;;;;;4899533;29;20753;-80
2024/02/28 03:58:50;;;;;;;12.13;7.87;;;;;;;;;;4899049;29;20197;-80
2024/02/28 04:01:18;;;;;;;10.37;7.70;;;;;;;;;;4899097;29;20252;-81
2024/02/28 04:03:45;;;;;;;12.10;8.07;;;;;;;;;;4899152;29;20224;-80
2024/02/28 04:06:14;;;;;;;10.30;7.63;;;;;;;;;;4898925;29;20232;-80
2024/02/28 04:08:42;;;;;;;14.63;7.90;;;;;;;;;;4899118;29;20296;-80
2024/02/28 04:11:09;;;;;;;10.17;7.37;;;;;;;;;;4899075;29;20212;-80
2024/02/28 04:13:36;;;;;;;9.80;7.67;;;;;;;;;;4898974;29;20661;-80
2024/02/28 04:16:04;;;;;;;9.60;7.30;;;;;;;;;;4899100;29;20246;-81
2024/02/28 04:18:31;;;;;;;11.07;7.70;;;;;;;;;;4899217;29;20201;-80
2024/02/28 04:20:58;;;;;;;9.63;7.57;;;;;;;;;;4898529;29;20346;-80
2024/02/28 04:23:27;;;;;;;14.73;8.73;;;;;;;;;;4898461;29;20205;-80
2024/02/28 04:25:54;;;;;;;11.27;7.73;;;;;;;;;;4899335;29;20237;-80
2024/02/28 04:28:22;;;;;;;13.33;8.07;;;;;;;;;;4917625;29;20290;-80
2024/02/28 04:30:49;;;;;;;9.97;8.13;;;;;;;;;;4917864;29;20208;-81
2024/02/28 04:33:16;;;;;;;12.47;7.77;;;;;;;;;;4916988;29;20287;-80
2024/02/28 04:35:43;;;;;;;12.90;8.33;;;;;;;;;;4917019;29;20204;-79
2024/02/28 04:38:10;;;;;;;12.77;8.37;;;;;;;;;;4917489;29;20204;-80
2024/02/28 04:40:39;;;;;;;14.17;9.97;;;;;;;;;;4917213;29;20692;-80
2024/02/28 04:43:06;;;;;;;13.17;8.97;;;;;;;;;;4917135;29;20200;-80
2024/02/28 04:45:33;;;;;;;11.20;7.63;;;;;;;;;;4917475;29;20310;-80
2024/02/28 04:48:00;;;;;;;10.83;8.23;;;;;;;;;;4916972;29;20680;-80
2024/02/28 04:50:28;;;;;;;10.70;7.70;;;;;;;;;;4916779;29;20200;-80
2024/02/28 04:52:55;;;;;;;11.57;7.37;;;;;;;;;;4911533;29;20299;-80
2024/02/28 04:55:22;;;;;;;11.67;7.10;;;;;;;;;;4898411;29;20205;-80
2024/02/28 04:57:51;;;;;;;10.17;7.30;;;;;;;;;;4897981;29;20204;-81
2024/02/28 05:00:18;;;;;;;9.97;7.33;;;;;;;;;;4898108;29;20241;-79
2024/02/28 05:02:45;;;;;;;13.00;7.23;;;;;;;;;;4898381;29;20213;-80
2024/02/28 05:05:13;;;;;;;11.87;7.63;;;;;;;;;;4897334;29;20272;-80
2024/02/28 05:07:40;;;;;;;12.07;7.53;;;;;;;;;;4898108;29;20235;-80
2024/02/28 05:10:08;;;;;;;10.97;7.47;;;;;;;;;;4897448;29;20201;-80
2024/02/28 05:12:35;;;;;;;9.30;6.87;;;;;;;;;;4898108;29;20592;-80
2024/02/28 05:15:04;;;;;;;9.93;6.97;;;;;;;;;;4898142;29;20229;-80
2024/02/28 05:17:31;;;;;;;8.70;6.70;;;;;;;;;;4897790;29;20615;-79
2024/02/28 05:19:58;;;;;;;10.13;6.23;;;;;;;;;;4897669;29;20621;-79
2024/02/28 05:22:25;;;;;;;9.60;6.73;;;;;;;;;;4897847;29;20200;-79
2024/02/28 05:24:53;;;;;;;8.73;6.57;;;;;;;;;;4897813;29;20312;-80
2024/02/28 05:27:20;;;;;;;8.70;6.67;;;;;;;;;;4897467;29;20245;-80
2024/02/28 05:29:48;;;;;;;12.10;7.23;;;;;;;;;;4897787;29;20201;-80
2024/02/28 05:32:16;;;;;;;7.63;6.13;;;;;;;;;;4897550;29;20206;-80
2024/02/28 05:34:44;;;;;;;10.90;6.70;;;;;;;;;;4896745;29;20292;-80
2024/02/28 05:37:11;;;;;;;8.80;6.10;;;;;;;;;;4897448;29;20209;-80
2024/02/28 05:39:38;;;;;;;10.83;6.70;;;;;;;;;;4897097;29;20632;-80
2024/02/28 05:42:05;;;;;;;12.07;6.90;;;;;;;;;;4897444;29;20243;-80
2024/02/28 05:44:34;;;;;;;8.10;6.70;;;;;;;;;;4897019;29;20209;-80
2024/02/28 05:47:01;;;;;;;9.33;7.03;;;;;;;;;;4896903;29;20255;-80
2024/02/28 05:49:30;;;;;;;9.03;6.73;;;;;;;;;;4897162;29;20208;-79
2024/02/28 05:51:57;;;;;;;11.50;6.53;;;;;;;;;;4897278;29;20197;-81
2024/02/28 05:54:24;;;;;;;10.27;6.77;;;;;;;;;;4897190;29;20235;-80
2024/02/28 05:56:52;;;;;;;7.37;6.43;;;;;;;;;;4897119;29;20201;-80
2024/02/28 05:59:19;;;;;;;10.73;6.57;;;;;;;;;;4897178;29;20213;-80
2024/02/28 06:01:46;;;;;;;8.90;6.33;;;;;;;;;;4896715;29;20205;-80
2024/02/28 06:04:14;;;;;;;11.17;6.50;;;;;;;;;;4897386;29;20288;-80
2024/02/28 06:06:42;;;;;;;13.20;6.63;;;;;;;;;;4896987;29;20236;-80
2024/02/28 06:09:10;;;;;;;9.90;6.50;;;;;;;;;;4897009;29;20296;-81
2024/02/28 06:11:37;;;;;;;9.97;6.60;;;;;;;;;;4896705;29;20201;-80
2024/02/28 06:14:04;;;;;;;10.77;6.63;;;;;;;;;;4897120;29;20236;-80
2024/02/28 06:16:32;;;;;;;11.67;7.33;;;;;;;;;;4896169;29;20208;-80
2024/02/28 06:18:59;;;;;;;9.70;6.50;;;;;;;;;;4896569;29;20198;-79
2024/02/28 06:21:26;;;;;;;12.73;7.63;;;;;;;;;;4896480;29;20208;-80
2024/02/28 06:23:55;;;;;;;13.27;6.70;;;;;;;;;;4896667;29;20232;-80
2024/02/28 06:26:22;;;;;;;9.80;6.70;;;;;;;;;;4900657;29;20244;-80
2024/02/28 06:28:50;;;;;;;12.23;7.23;;;;;;;;;;4915999;29;20239;-81
2024/02/28 06:31:18;;;;;;;12.23;7.00;;;;;;;;;;4915037;29;20239;-79
2024/02/28 06:33:45;;;;;;;9.40;6.40;;;;;;;;;;4915189;29;20307;-81
2024/02/28 06:36:12;;;;;;;10.53;6.40;;;;;;;;;;4915608;29;20283;-80
2024/02/28 06:38:39;;;;;;;13.10;6.80;;;;;;;;;;4915373;29;20236;-81
2024/02/28 06:41:08;;;;;;;12.93;6.87;;;;;;;;;;4915222;29;20196;-81
2024/02/28 06:43:36;;;;;;;10.40;6.17;;;;;;;;;;4915178;29;20215;-81
2024/02/28 06:46:03;;;;;;;9.47;6.43;;;;;;;;;;4913933;29;20239;-81
2024/02/28 06:48:31;;;;;;;10.97;6.93;;;;;;;;;;4915230;29;20212;-81
2024/02/28 06:50:58;;;;;;;13.17;7.00;;;;;;;;;;4898081;29;20200;-80
2024/02/28 06:53:26;;;;;;;8.27;6.50;;;;;;;;;;4914943;29;20207;-80
2024/02/28 06:55:53;;;;;;;10.13;6.43;;;;;;;;;;4915538;29;20207;-81
2024/02/28 06:58:24;;;;;;;8.00;6.10;;;;;;;;;;4914998;29;20629;-81
2024/02/28 07:00:52;;;;;;;11.23;7.03;;;;;;;;;;4914683;29;20227;-81
2024/02/28 07:03:19;;;;;;;11.03;6.47;;;;;;;;;;4915082;29;20205;-81
2024/02/28 07:05:46;;;;;;;10.93;6.93;;;;;;;;;;4914888;29;20235;-80
2024/02/28 07:08:14;;;;;;;11.03;6.67;;;;;;;;;;4914927;29;20207;-81
2024/02/28 07:10:43;;;;;;;10.17;7.07;;;;;;;;;;4914836;29;20263;-80
2024/02/28 07:13:10;;;;;;;12.47;7.13;;;;;;;;;;4914847;29;20204;-81
2024/02/28 07:15:39;;;;;;;12.30;7.13;;;;;;;;;;4914984;29;20196;-79
2024/02/28 07:18:07;;;;;;;15.03;7.60;;;;;;;;;;4915104;29;20200;-80
2024/02/28 07:20:34;;;;;;;12.80;8.00;;;;;;;;;;4914970;29;20283;-80
2024/02/28 07:23:01;;;;;;;13.20;7.20;;;;;;;;;;4914770;29;20304;-80
2024/02/28 07:25:29;;;;;;;12.53;7.83;;;;;;;;;;4914941;29;20662;-80
2024/02/28 07:27:59;;;;;;;12.30;7.87;;;;;;;;;;4914544;29;20278;-80
2024/02/28 07:30:26;;;;;;;15.53;8.07;;;;;;;;;;4914608;29;20299;-80
2024/02/28 07:32:54;;;;;;;15.63;8.00;;;;;;;;;;4914662;29;20291;-80
2024/02/28 07:35:23;;;;;;;14.47;8.40;;;;;;;;;;4914536;29;20204;-80
2024/02/28 07:37:50;;;;;;;13.83;8.10;;;;;;;;;;4914506;29;20673;-79
2024/02/28 07:40:18;;;;;;;17.67;8.77;;;;;;;;;;4910874;29;20268;-79
2024/02/28 07:42:45;;;;;;;15.83;8.43;;;;;;;;;;4886548;29;20237;-81
2024/02/28 07:45:13;;;;;;;16.93;8.80;;;;;;;;;;4879279;29;20219;-81
2024/02/28 07:47:41;;;;;;;16.63;8.93;;;;;;;;;;4884970;29;20786;-80
2024/02/28 07:50:10;;;;;;;14.50;9.00;;;;;;;;;;4886608;29;20202;-80
2024/02/28 07:52:37;;;;;;;13.87;8.87;;;;;;;;;;4887905;29;20304;-81
2024/02/28 07:55:05;;;;;;;17.13;9.10;;;;;;;;;;4895569;29;20213;-80
2024/02/28 07:57:33;;;;;;;14.80;9.23;;;;;;;;;;4896219;29;20211;-79
2024/02/28 08:00:00;;;;;;;17.97;9.53;;;;;;;;;;4890752;29;20217;-80
2024/02/28 08:02:27;;;;;;;13.40;9.07;;;;;;;;;;4880769;29;20202;-80
2024/02/28 08:04:55;;;;;;;17.07;9.27;;;;;;;;;;4890718;29;20236;-80
2024/02/28 08:07:23;;;;;;;15.10;9.40;;;;;;;;;;4899038;29;20240;-79
2024/02/28 08:09:51;;;;;;;14.43;8.90;;;;;;;;;;4888561;29;20245;-79
2024/02/28 08:12:18;;;;;;;12.53;9.10;;;;;;;;;;4885958;29;20240;-80
2024/02/28 08:14:45;;;;;;;13.53;9.07;;;;;;;;;;4893738;29;20251;-80
2024/02/28 08:17:13;;;;;;;17.07;9.30;;;;;;;;;;4898434;29;20201;-81
2024/02/28 08:19:42;;;;;;;17.70;9.97;;;;;;;;;;4899120;29;20213;-80
2024/02/28 08:22:10;;;;;;;12.60;9.33;;;;;;;;;;4898504;29;20264;-80
2024/02/28 08:24:39;;;;;;;13.77;9.07;;;;;;;;;;4898801;29;20213;-81
2024/02/28 08:27:06;;;;;;;16.17;9.60;;;;;;;;;;4898152;29;20332;-81
2024/02/28 08:29:35;;;;;;;14.63;9.17;;;;;;;;;;4898935;29;20209;-81
2024/02/28 08:32:02;;;;;;;16.70;9.17;;;;;;;;;;4898705;29;20292;-81
2024/02/28 08:34:29;;;;;;;13.93;9.70;;;;;;;;;;4898563;29;20580;-79
2024/02/28 08:36:57;;;;;;;16.77;9.67;;;;;;;;;;4898632;29;20208;-81
2024/02/28 08:39:24;;;;;;;15.27;9.37;;;;;;;;;;4898523;29;20208;-81
2024/02/28 08:41:53;;;;;;;15.83;10.10;;;;;;;;;;4897745;29;20208;-80
2024/02/28 08:44:20;;;;;;;15.50;10.07;;;;;;;;;;4895618;29;20297;-81
2024/02/28 08:46:48;;;;;;;16.90;10.03;;;;;;;;;;4898414;29;20233;-80
2024/02/28 08:49:16;;;;;;;16.47;10.67;;;;;;;;;;4898601;29;20567;-80
2024/02/28 08:51:44;;;;;;;18.30;10.50;;;;;;;;;;4898283;29;20201;-79
2024/02/28 08:54:11;;;;;;;17.60;10.10;;;;;;;;;;4885965;29;20652;-79
2024/02/28 08:56:38;;;;;;;17.30;10.50;;;;;;;;;;4879041;29;20738;-81
2024/02/28 08:59:07;;;;;;;16.83;10.87;;;;;;;;;;4879472;29;20241;-80
2024/02/28 09:01:35;;;;;;;17.17;10.43;;;;;;;;;;4879959;29;20226;-81
2024/02/28 09:04:03;;;;;;;16.03;9.50;;;;;;;;;;4879638;29;20205;-81
2024/02/28 09:06:30;;;;;;;15.33;10.30;;;;;;;;;;4879278;29;20280;-82
2024/02/28 09:08:58;;;;;;;15.70;10.40;;;;;;;;;;4878864;29;20291;-82
2024/02/28 09:11:25;;;;;;;16.70;10.67;;;;;;;;;;4879303;29;20784;-80
2024/02/28 09:13:52;;;;;;;14.00;10.17;;;;;;;;;;4884828;29;20209;-81
2024/02/28 09:16:21;;;;;;;14.67;9.63;;;;;;;;;;4897877;29;20214;-81
2024/02/28 09:18:48;;;;;;;14.33;9.57;;;;;;;;;;4892494;29;20296;-82
2024/02/28 09:21:16;;;;;;;14.27;9.73;;;;;;;;;;4896867;29;20221;-81
2024/02/28 09:23:43;;;;;;;14.17;9.60;;;;;;;;;;4897054;29;20269;-81
2024/02/28 09:26:11;;;;;;;15.40;9.53;;;;;;;;;;4897289;29;20769;-81
2024/02/28 09:28:40;;;;;;;16.30;9.70;;;;;;;;;;4897773;29;20213;-82
2024/02/28 09:31:08;;;;;;;12.97;8.93;;;;;;;;;;4891804;29;20581;-80
2024/02/28 09:33:38;;;;;;;12.77;8.90;;;;;;;;;;4897319;29;20268;-82
2024/02/28 09:36:06;;;;;;;15.50;8.67;;;;;;;;;;4897583;29;20308;-82
2024/02/28 09:38:34;;;;;;;15.43;9.53;;;;;;;;;;4897651;29;20296;-82
2024/02/28 09:41:02;;;;;;;13.43;9.27;;;;;;;;;;4897015;29;20662;-82
2024/02/28 09:43:31;;;;;;;11.17;8.57;;;;;;;;;;4894573;29;20624;-81
2024/02/28 09:45:59;;;;;;;13.57;8.33;;;;;;;;;;4896565;29;20204;-81
2024/02/28 09:48:29;;;;;;;10.83;8.50;;;;;;;;;;4903763;29;20236;-81
2024/02/28 09:50:58;;;;;;;9.57;7.40;;;;;;;;;;4894823;29;20244;-82
2024/02/28 09:53:25;;;;;;;9.17;7.20;;;;;;;;;;4896121;29;20297;-83
2024/02/28 09:55:53;;;;;;;10.33;7.70;;;;;;;;;;4910992;29;20205;-84
2024/02/28 09:58:21;;;;;;;8.87;6.77;;;;;;;;;;4902310;29;20201;-81
2024/02/28 10:00:50;;;;;;;9.07;7.30;;;;;;;;;;4895788;29;20909;-82
2024/02/28 10:03:19;;;;;;;9.60;7.10;;;;;;;;;;4894339;29;20292;-81
2024/02/28 10:05:47;;;;;;;9.93;7.20;;;;;;;;;;4896073;29;20233;-81
2024/02/28 10:08:16;;;;;;;7.57;6.40;;;;;;;;;;4894533;29;20239;-81
2024/02/28 10:10:47;;;;;;;9.60;7.43;;;;;;;;;;4896479;29;20237;-80
2024/02/28 10:13:14;;;;;;;9.33;6.80;;;;;;;;;;4896664;29;20213;-82
2024/02/28 10:15:42;;;;;;;9.70;7.17;;;;;;;;;;4896586;29;20208;-82
2024/02/28 10:18:09;;;;;;;10.20;7.17;;;;;;;;;;4896563;29;20670;-81
2024/02/28 10:20:36;;;;;;;11.40;7.27;;;;;;;;;;4895902;29;20205;-82
2024/02/28 10:23:05;;;;;;;9.67;7.43;;;;;;;;;;4896308;29;20561;-81
2024/02/28 10:25:34;;;;;;;10.50;6.60;;;;;;;;;;4896724;29;20205;-81
2024/02/28 10:28:02;;;;;;;8.53;6.67;;;;;;;;;;4896022;29;20305;-80
2024/02/28 10:30:29;;;;;;;7.83;6.73;;;;;;;;;;4896621;29;20292;-82
2024/02/28 10:32:57;;;;;;;10.30;7.03;;;;;;;;;;4896111;29;20205;-81
2024/02/28 10:35:25;;;;;;;8.10;7.07;;;;;;;;;;4896157;29;20582;-82
2024/02/28 10:37:53;;;;;;;9.97;6.90;;;;;;;;;;4891417;29;20904;-82
2024/02/28 10:40:21;;;;;;;8.43;6.30;;;;;;;;;;4895666;29;20308;-83
2024/02/28 10:42:50;;;;;;;12.70;9.57;;;;;;;;;;4894601;29;20235;-83
2024/02/28 10:45:19;;;;;;;11.40;8.20;;;;;;;;;;4889587;29;20675;-82
2024/02/28 10:47:47;;;;;;;12.07;8.30;;;;;;;;;;4887393;29;20328;-83
2024/02/28 10:50:16;;;;;;;12.73;9.20;;;;;;;;;;4915358;29;20207;-82
2024/02/28 10:52:46;;;;;;;10.63;8.43;;;;;;;;;;4914716;29;20206;-82
2024/02/28 10:55:13;;;;;;;9.87;7.60;;;;;;;;;;4893682;29;20297;-82
2024/02/28 10:57:41;;;;;;;11.10;7.80;;;;;;;;;;4893365;29;20304;-82
2024/02/28 11:00:12;;;;;;;10.60;8.30;;;;;;;;;;4894756;29;20669;-82
2024/02/28 11:02:39;;;;;;;8.77;7.10;;;;;;;;;;4893817;29;20209;-82
2024/02/28 11:05:07;;;;;;;10.13;7.97;;;;;;;;;;4887546;29;20247;-82
2024/02/28 11:07:34;;;;;;;10.93;8.50;;;;;;;;;;4895537;29;20659;-80
2024/02/28 11:10:06;;;;;;;9.93;8.07;;;;;;;;;;4895501;29;20688;-80
2024/02/28 11:12:33;;;;;;;10.10;8.23;;;;;;;;;;4893621;29;20647;-80
2024/02/28 11:15:01;;;;;;;10.87;8.70;;;;;;;;;;4895619;29;20292;-80
2024/02/28 11:17:31;;;;;;;10.30;8.10;;;;;;;;;;4911002;29;20303;-81
2024/02/28 11:19:58;;;;;;;9.90;8.50;;;;;;;;;;4914874;29;20220;-81
2024/02/28 11:22:25;;;;;;;11.13;9.27;;;;;;;;;;4914186;29;20208;-80
2024/02/28 11:24:55;;;;;;;11.40;9.27;;;;;;;;;;4914583;29;20678;-81
2024/02/28 11:27:22;;;;;;;12.33;9.57;;;;;;;;;;4914192;29;20323;-81
2024/02/28 11:29:49;;;;;;;12.80;9.83;;;;;;;;;;4908685;29;20300;-81
2024/02/28 11:32:17;;;;;;;16.27;11.70;;;;;;;;;;4908645;29;20200;-81
2024/02/28 11:34:46;;;;;;;16.57;12.27;;;;;;;;;;4918048;29;20263;-80
2024/02/28 11:37:13;;;;;;;15.57;12.97;;;;;;;;;;4913563;29;20205;-80
2024/02/28 11:39:40;;;;;;;19.83;13.43;;;;;;;;;;4889642;29;20209;-82
2024/02/28 11:42:13;;;;;;;17.20;12.90;;;;;;;;;;4900894;29;20220;-81
2024/02/28 11:44:41;;;;;;;19.03;13.57;;;;;;;;;;4913950;29;20215;-80
2024/02/28 11:47:10;;;;;;;13.97;10.87;;;;;;;;;;4916411;29;20670;-81
2024/02/28 11:49:37;;;;;;;15.70;10.97;;;;;;;;;;4909204;29;20204;-82
2024/02/28 11:52:06;;;;;;;11.70;9.10;;;;;;;;;;4901887;29;20236;-81
2024/02/28 11:54:33;;;;;;;10.43;7.80;;;;;;;;;;4899566;29;20212;-82
2024/02/28 11:57:00;;;;;;;10.53;7.83;;;;;;;;;;4898839;29;20292;-81
2024/02/28 11:59:27;;;;;;;11.30;7.97;;;;;;;;;;4899089;29;20205;-82
2024/02/28 12:01:55;;;;;;;8.50;6.67;;;;;;;;;;4898683;29;20209;-82
2024/02/28 12:04:25;;;;;;;8.90;6.33;;;;;;;;;;4897740;29;20260;-80
2024/02/28 12:06:52;;;;;;;8.63;6.50;;;;;;;;;;4899126;29;20207;-82
2024/02/28 12:09:21;;;;;;;7.77;5.83;;;;;;;;;;4899124;29;20237;-82
2024/02/28 12:11:48;;;;;;;8.13;6.10;;;;;;;;;;4897294;29;20209;-82
2024/02/28 12:14:15;;;;;;;7.23;5.57;;;;;;;;;;4898263;29;20296;-82
2024/02/28 12:16:44;;;;;;;7.30;6.00;;;;;;;;;;4898925;29;20209;-81
2024/02/28 12:19:11;;;;;;;8.47;6.03;;;;;;;;;;4898822;29;20202;-82
2024/02/28 12:21:39;;;;;;;8.20;6.00;;;;;;;;;;4897808;29;20217;-82
2024/02/28 12:24:07;;;;;;;7.30;5.73;;;;;;;;;;4880782;29;20292;-82
2024/02/28 12:26:35;;;;;;;7.57;5.77;;;;;;;;;;4898075;29;20233;-82
2024/02/28 12:29:03;;;;;;;6.57;5.23;;;;;;;;;;4894586;29;20430;-82
2024/02/28 12:31:30;;;;;;;8.17;5.60;;;;;;;;;;4898708;29;20297;-82
2024/02/28 12:33:57;;;;;;;6.80;6.07;;;;;;;;;;4899252;29;20615;-82
2024/02/28 12:36:24;;;;;;;8.53;6.30;;;;;;;;;;4901131;29;20284;-82
2024/02/28 12:38:52;;;;;;;8.53;6.43;;;;;;;;;;4897301;29;20292;-83
2024/02/28 12:41:19;;;;;;;7.50;6.23;;;;;;;;;;4881716;29;20268;-81
2024/02/28 12:43:47;;;;;;;7.53;5.57;;;;;;;;;;4892144;29;20292;-81
2024/02/28 12:46:15;;;;;;;7.20;5.40;;;;;;;;;;4917241;29;20299;-81
2024/02/28 12:48:42;;;;;;;8.37;6.33;;;;;;;;;;4911607;29;20235;-82
2024/02/28 12:51:11;;;;;;;7.07;5.20;;;;;;;;;;4917315;29;20204;-83
2024/02/28 12:53:38;;;;;;;6.47;5.30;;;;;;;;;;4916874;29;20235;-82
2024/02/28 12:56:06;;;;;;;9.13;5.70;;;;;;;;;;4901571;29;20213;-81
2024/02/28 12:58:33;;;;;;;5.63;4.97;;;;;;;;;;4906146;29;20228;-82
2024/02/28 13:01:02;;;;;;;6.57;4.97;;;;;;;;;;4905378;29;20297;-82
2024/02/28 13:03:29;;;;;;;7.33;5.67;;;;;;;;;;4899429;29;20288;-83
2024/02/28 13:05:56;;;;;;;6.30;5.27;;;;;;;;;;4903886;29;20200;-83
2024/02/28 13:08:23;;;;;;;9.77;6.07;;;;;;;;;;4902826;29;20788;-82
2024/02/28 13:10:51;;;;;;;8.03;5.70;;;;;;;;;;4897345;29;20236;-82
2024/02/28 13:13:18;;;;;;;8.93;6.50;;;;;;;;;;4896154;29;20241;-82
2024/02/28 13:15:46;;;;;;;7.47;5.93;;;;;;;;;;4896919;29;20240;-82
2024/02/28 13:18:14;;;;;;;8.87;5.90;;;;;;;;;;4896577;29;20212;-83
2024/02/28 13:20:42;;;;;;;7.00;5.23;;;;;;;;;;4898077;29;20250;-83
2024/02/28 13:23:09;;;;;;;6.75;6.00;;;;;;;;;;4901608;29;20507;-83
2024/02/28 13:25:37;;;;;;;7.53;6.03;;;;;;;;;;4897066;29;20212;-82
2024/02/28 13:28:04;;;;;;;7.80;5.83;;;;;;;;;;4889007;29;20337;-82
2024/02/28 13:30:31;;;;;;;10.13;6.70;;;;;;;;;;4886655;29;20233;-82
2024/02/28 13:32:58;;;;;;;8.67;6.60;;;;;;;;;;4888958;29;20750;-83
2024/02/28 13:35:27;;;;;;;7.10;5.47;;;;;;;;;;4889217;29;20603;-83
2024/02/28 13:37:59;;;;;;;6.60;5.07;;;;;;;;;;4887152;29;20219;-83
2024/02/28 13:40:26;;;;;;;8.63;6.17;;;;;;;;;;4890705;29;20209;-82
2024/02/28 13:42:54;;;;;;;6.10;5.50;;;;;;;;;;4888575;29;20204;-83
2024/02/28 13:45:21;;;;;;;6.50;5.27;;;;;;;;;;4891756;29;20692;-82
2024/02/28 13:47:49;;;;;;;8.03;5.33;;;;;;;;;;4887623;29;20201;-83
2024/02/28 13:50:16;;;;;;;5.67;4.70;;;;;;;;;;4881336;29;20251;-82
2024/02/28 13:52:44;;;;;;;5.90;4.60;;;;;;;;;;4890756;29;20296;-83
2024/02/28 13:55:12;;;;;;;6.67;4.70;;;;;;;;;;4875177;29;20715;-83
2024/02/28 13:57:39;;;;;;;6.70;4.63;;;;;;;;;;4887419;29;20233;-82
2024/02/28 14:00:11;;;;;;;6.17;5.30;;;;;;;;;;4896613;29;20301;-82
2024/02/28 14:02:38;;;;;;;8.40;5.13;;;;;;;;;;4892668;29;20209;-82
2024/02/28 14:05:07;;;;;;;6.80;5.57;;;;;;;;;;4896601;29;20233;-82
2024/02/28 14:07:37;;;;;;;8.30;5.47;;;;;;;;;;4895115;29;20281;-82
2024/02/28 14:10:06;;;;;;;6.50;5.47;;;;;;;;;;4875949;29;20293;-83
2024/02/28 14:12:33;;;;;;;8.07;6.10;;;;;;;;;;4872219;29;20233;-81
2024/02/28 14:15:00;;;;;;;6.93;5.50;;;;;;;;;;4890588;29;20245;-84
2024/02/28 14:17:28;;;;;;;7.93;5.83;;;;;;;;;;4879066;29;20884;-83
2024/02/28 14:19:55;;;;;;;7.90;5.77;;;;;;;;;;4888932;29;20222;-83
2024/02/28 14:22:22;;;;;;;7.57;5.87;;;;;;;;;;4893209;29;20297;-83
2024/02/28 14:24:49;;;;;;;5.80;5.07;;;;;;;;;;4877008;29;20233;-81
2024/02/28 14:27:19;;;;;;;6.60;5.13;;;;;;;;;;4902260;29;20776;-84
2024/02/28 14:29:46;;;;;;;6.23;5.27;;;;;;;;;;4904345;29;20251;-85
2024/02/28 14:32:16;;;;;;;6.13;5.30;;;;;;;;;;4909444;29;20284;-84
2024/02/28 14:34:43;;;;;;;7.47;5.07;;;;;;;;;;4914644;29;20212;-84